createdAt,value
2023-04-28T00:00:07.870Z,61.84
2023-04-28T00:02:34.684Z,62.76
2023-04-28T00:05:01.596Z,62.19
2023-04-28T00:07:28.424Z,62.79
2023-04-28T00:09:56.932Z,62.56
2023-04-28T00:12:23.819Z,62.74
2023-04-28T00:14:50.489Z,62.67
2023-04-28T00:17:17.350Z,63.26
2023-04-28T00:19:45.116Z,62.97
2023-04-28T00:22:11.828Z,63.70
2023-04-28T00:24:38.391Z,64.70
2023-04-28T00:27:05.006Z,64.46
2023-04-28T00:29:31.632Z,64.48
2023-04-28T00:31:58.326Z,63.92
2023-04-28T00:34:24.992Z,64.09
2023-04-28T00:36:51.640Z,64.61
2023-04-28T00:39:18.627Z,65.92
2023-04-28T00:41:45.255Z,65.27
2023-04-28T00:44:11.862Z,64.90
2023-04-28T00:46:38.646Z,65.45
2023-04-28T00:49:05.969Z,65.25
2023-04-28T00:51:33.883Z,65.75
2023-04-28T00:54:01.053Z,65.76
2023-04-28T00:56:31.279Z,65.86
2023-04-28T00:58:58.671Z,66.30
2023-04-28T01:01:25.817Z,66.27
2023-04-28T01:03:53.096Z,67.19
2023-04-28T01:06:20.499Z,66.66
2023-04-28T01:08:49.373Z,66.34
2023-04-28T01:11:16.308Z,66.51
2023-04-28T01:13:42.972Z,66.28
2023-04-28T01:16:09.685Z,65.94
2023-04-28T01:18:36.634Z,66.31
2023-04-28T01:21:04.563Z,66.19
2023-04-28T01:23:31.294Z,65.85
2023-04-28T01:25:58.421Z,66.54
2023-04-28T01:28:25.084Z,66.76
2023-04-28T01:30:51.896Z,66.30
2023-04-28T01:33:18.555Z,66.26
2023-04-28T01:35:45.146Z,66.43
2023-04-28T01:38:11.899Z,66.14
2023-04-28T01:40:38.634Z,67.05
2023-04-28T01:43:05.335Z,66.72
2023-04-28T01:45:31.952Z,66.75
2023-04-28T01:47:58.640Z,66.45
2023-04-28T01:50:25.441Z,66.70
2023-04-28T01:52:52.072Z,66.72
2023-04-28T01:55:18.713Z,66.31
2023-04-28T01:57:45.446Z,66.99
2023-04-28T02:00:12.300Z,66.74
2023-04-28T02:02:39.024Z,66.25
2023-04-28T02:05:06.333Z,66.45
2023-04-28T02:07:33.036Z,66.88
2023-04-28T02:09:59.703Z,66.86
2023-04-28T02:12:26.352Z,66.48
2023-04-28T02:14:53.285Z,66.63
2023-04-28T02:17:19.932Z,65.94
2023-04-28T02:19:46.654Z,66.60
2023-04-28T02:22:13.321Z,66.65
2023-04-28T02:24:40.010Z,66.55
2023-04-28T02:27:06.654Z,66.05
2023-04-28T02:29:33.294Z,66.21
2023-04-28T02:32:00.170Z,66.28
2023-04-28T02:34:26.972Z,66.59
2023-04-28T02:36:53.694Z,66.65
2023-04-28T02:39:22.076Z,66.92
2023-04-28T02:41:48.739Z,66.69
2023-04-28T02:44:15.911Z,66.80
2023-04-28T02:46:42.765Z,66.46
2023-04-28T02:49:09.463Z,66.80
2023-04-28T02:51:36.216Z,66.80
2023-04-28T02:54:02.976Z,66.70
2023-04-28T02:56:33.080Z,66.29
2023-04-28T02:58:59.730Z,66.70
2023-04-28T03:01:26.908Z,66.70
2023-04-28T03:03:53.876Z,66.99
2023-04-28T03:06:20.540Z,67.34
2023-04-28T03:08:47.260Z,67.56
2023-04-28T03:11:13.882Z,67.71
2023-04-28T03:13:40.598Z,68.77
2023-04-28T03:16:08.089Z,69.04
2023-04-28T03:18:35.011Z,69.23
2023-04-28T03:21:01.720Z,68.79
2023-04-28T03:23:28.460Z,68.38
2023-04-28T03:25:55.108Z,68.69
2023-04-28T03:28:22.053Z,67.96
2023-04-28T03:30:48.725Z,68.34
2023-04-28T03:33:15.457Z,67.36
2023-04-28T03:35:42.037Z,68.06
2023-04-28T03:38:08.677Z,68.09
2023-04-28T03:40:35.583Z,67.95
2023-04-28T03:43:03.971Z,66.98
2023-04-28T03:45:31.646Z,67.27
2023-04-28T03:47:58.393Z,67.90
2023-04-28T03:50:26.699Z,67.83
2023-04-28T03:52:53.694Z,68.29
2023-04-28T03:55:20.369Z,69.17
2023-04-28T03:57:47.020Z,68.99
2023-04-28T04:00:14.109Z,68.59
2023-04-28T04:02:40.896Z,69.80
2023-04-28T04:05:08.046Z,69.37
2023-04-28T04:07:34.908Z,70.38
2023-04-28T04:10:03.899Z,70.82
2023-04-28T04:12:31.252Z,70.05
2023-04-28T04:14:57.877Z,71.99
2023-04-28T04:17:24.620Z,72.32
2023-04-28T04:19:51.318Z,71.94
2023-04-28T04:22:18.019Z,72.79
2023-04-28T04:24:44.736Z,72.25
2023-04-28T04:27:11.398Z,71.28
2023-04-28T04:29:43.362Z,71.76
2023-04-28T04:32:09.966Z,71.66
2023-04-28T04:34:36.791Z,72.63
2023-04-28T04:37:03.385Z,72.00
2023-04-28T04:39:30.099Z,71.49
2023-04-28T04:41:56.701Z,71.62
2023-04-28T04:44:23.362Z,71.69
2023-04-28T04:46:50.016Z,71.60
2023-04-28T04:49:17.345Z,73.00
2023-04-28T04:51:44.004Z,72.88
2023-04-28T04:54:10.600Z,73.35
2023-04-28T04:56:37.568Z,73.92
2023-04-28T04:59:04.185Z,75.07
2023-04-28T05:01:31.062Z,76.34
2023-04-28T05:03:57.852Z,74.89
2023-04-28T05:06:24.698Z,76.77
2023-04-28T05:08:51.275Z,76.21
2023-04-28T05:11:18.052Z,75.41
2023-04-28T05:13:44.706Z,76.36
2023-04-28T05:16:11.369Z,76.21
2023-04-28T05:18:38.046Z,77.15
2023-04-28T05:21:04.743Z,77.82
2023-04-28T05:23:31.359Z,77.72
2023-04-28T05:25:58.084Z,78.55
2023-04-28T05:28:24.761Z,79.17
2023-04-28T05:30:51.485Z,78.87
2023-04-28T05:33:18.051Z,79.21
2023-04-28T05:35:44.740Z,80.14
2023-04-28T05:38:14.489Z,80.13
2023-04-28T05:40:41.172Z,79.50
2023-04-28T05:43:07.843Z,80.29
2023-04-28T05:45:35.220Z,81.88
2023-04-28T05:48:05.272Z,81.65
2023-04-28T05:50:32.431Z,81.66
2023-04-28T05:52:59.395Z,80.60
2023-04-28T05:55:26.976Z,80.84
2023-04-28T05:57:54.538Z,79.98
2023-04-28T06:00:22.261Z,80.32
2023-04-28T06:02:49.281Z,80.76
2023-04-28T06:05:16.669Z,82.14
2023-04-28T06:07:43.675Z,81.38
2023-04-28T06:10:10.956Z,80.73
2023-04-28T06:12:37.656Z,81.25
2023-04-28T06:15:05.566Z,82.08
2023-04-28T06:17:33.497Z,83.13
2023-04-28T06:20:00.511Z,83.00
2023-04-28T06:22:27.243Z,82.94
2023-04-28T06:24:53.983Z,82.12
2023-04-28T06:27:20.684Z,82.23
2023-04-28T06:29:47.252Z,82.89
2023-04-28T06:32:13.981Z,82.67
2023-04-28T06:34:40.654Z,81.36
2023-04-28T06:37:07.271Z,83.45
2023-04-28T06:39:33.896Z,82.76
2023-04-28T06:42:02.401Z,84.10
2023-04-28T06:44:29.036Z,84.28
2023-04-28T06:46:55.804Z,85.45
2023-04-28T06:49:22.468Z,87.36
2023-04-28T06:51:49.052Z,85.67
2023-04-28T06:54:16.852Z,84.40
2023-04-28T06:56:43.846Z,84.79
2023-04-28T06:59:10.491Z,85.56
2023-04-28T07:01:37.378Z,85.05
2023-04-28T07:04:04.320Z,84.04
2023-04-28T07:06:32.503Z,84.38
2023-04-28T07:08:59.204Z,84.58
2023-04-28T07:11:25.896Z,84.77
2023-04-28T07:13:52.486Z,85.09
2023-04-28T07:16:19.313Z,85.41
2023-04-28T07:18:46.261Z,85.31
2023-04-28T07:21:13.034Z,84.96
2023-04-28T07:23:42.549Z,85.62
2023-04-28T07:26:11.485Z,85.67
2023-04-28T07:29:02.822Z,84.80
2023-04-28T07:31:30.468Z,84.01
2023-04-28T07:33:57.178Z,84.58
2023-04-28T07:36:23.956Z,84.57
2023-04-28T07:38:51.244Z,83.64
2023-04-28T07:41:19.037Z,85.21
2023-04-28T07:43:45.989Z,85.57
2023-04-28T07:46:13.287Z,85.30
2023-04-28T07:48:40.020Z,85.85
2023-04-28T07:51:07.302Z,85.50
2023-04-28T07:53:34.378Z,86.12
2023-04-28T07:56:01.733Z,87.78
2023-04-28T07:58:28.636Z,87.14
2023-04-28T08:00:55.494Z,86.12
2023-04-28T08:03:22.626Z,87.73
2023-04-28T08:05:49.602Z,88.27
2023-04-28T08:08:16.222Z,88.75
2023-04-28T08:10:43.927Z,87.44
2023-04-28T08:13:10.817Z,87.85
2023-04-28T08:15:37.587Z,87.55
2023-04-28T08:18:04.491Z,88.64
2023-04-28T08:20:32.711Z,89.51
2023-04-28T08:22:59.432Z,89.75
2023-04-28T08:25:26.377Z,89.37
2023-04-28T08:27:54.445Z,89.00
2023-04-28T08:30:22.305Z,90.32
2023-04-28T08:32:49.083Z,89.87
2023-04-28T08:35:16.015Z,92.23
2023-04-28T08:37:43.075Z,91.84
2023-04-28T08:40:10.399Z,91.02
2023-04-28T08:42:38.265Z,90.94
2023-04-28T08:45:06.284Z,91.54
2023-04-28T08:47:38.482Z,92.79
2023-04-28T08:50:08.077Z,91.61
2023-04-28T08:52:36.265Z,90.76
2023-04-28T08:55:13.131Z,89.11
2023-04-28T08:57:43.146Z,89.70
2023-04-28T09:00:11.191Z,89.65
2023-04-28T09:02:38.586Z,90.14
2023-04-28T09:05:08.540Z,91.04
2023-04-28T09:07:36.563Z,89.36
2023-04-28T09:10:22.564Z,89.24
2023-04-28T09:12:52.656Z,89.58
2023-04-28T09:15:45.694Z,89.61
2023-04-28T09:18:15.651Z,89.33
2023-04-28T09:20:42.497Z,88.64
2023-04-28T09:23:22.779Z,89.14
2023-04-28T09:25:59.860Z,91.10
2023-04-28T09:28:26.566Z,90.31
2023-04-28T09:30:54.740Z,90.74
2023-04-28T09:33:22.482Z,90.49
2023-04-28T09:35:49.341Z,89.73
2023-04-28T09:38:17.105Z,90.36
2023-04-28T09:41:01.164Z,90.83
2023-04-28T09:43:27.903Z,90.37
2023-04-28T09:45:56.194Z,91.04
2023-04-28T09:48:31.991Z,90.55
2023-04-28T09:51:09.105Z,90.70
2023-04-28T09:53:36.617Z,90.12
2023-04-28T09:56:05.384Z,90.68
2023-04-28T09:58:35.356Z,90.13
2023-04-28T10:01:02.371Z,89.79
2023-04-28T10:03:30.952Z,89.37
2023-04-28T10:06:21.049Z,89.32
2023-04-28T10:08:51.262Z,89.73
2023-04-28T10:11:18.118Z,88.94
2023-04-28T10:13:45.670Z,88.72
2023-04-28T10:16:14.534Z,88.68
2023-04-28T10:18:42.208Z,89.65
2023-04-28T10:21:09.585Z,89.03
2023-04-28T10:23:58.023Z,88.20
2023-04-28T10:26:36.560Z,89.00
2023-04-28T10:29:04.073Z,89.25
2023-04-28T10:31:30.734Z,89.69
2023-04-28T10:34:22.155Z,89.36
2023-04-28T10:36:51.055Z,89.75
2023-04-28T10:39:18.009Z,90.47
2023-04-28T10:41:49.230Z,90.14
2023-04-28T10:44:31.552Z,89.81
2023-04-28T10:47:05.184Z,89.92
2023-04-28T10:50:01.113Z,91.21
2023-04-28T10:52:33.576Z,91.47
2023-04-28T10:55:27.193Z,94.02
2023-04-28T10:58:17.531Z,93.64
2023-04-28T11:00:48.401Z,93.05
2023-04-28T11:03:49.837Z,93.86
2023-04-28T11:06:27.270Z,93.35
2023-04-28T11:08:56.537Z,94.36
2023-04-28T11:11:26.013Z,94.88
2023-04-28T11:13:54.325Z,95.93
2023-04-28T11:16:23.690Z,93.22
2023-04-28T11:21:16.918Z,93.21
2023-04-28T11:23:44.450Z,91.84
2023-04-28T11:26:11.241Z,91.12
2023-04-28T11:28:51.022Z,92.10
2023-04-28T11:31:22.478Z,92.23
2023-04-28T11:33:55.745Z,92.66
2023-04-28T11:36:43.936Z,92.95
2023-04-28T11:39:12.692Z,91.05
2023-04-28T11:41:44.830Z,91.31
2023-04-28T11:44:16.443Z,90.37
2023-04-28T11:46:50.971Z,90.22
2023-04-28T11:49:18.927Z,88.73
2023-04-28T11:51:48.628Z,89.25
2023-04-28T11:54:29.186Z,88.46
2023-04-28T11:56:57.596Z,87.86
2023-04-28T11:59:51.307Z,85.99
2023-04-28T12:02:28.362Z,84.55
2023-04-28T12:04:55.396Z,84.56
2023-04-28T12:07:22.235Z,85.14
2023-04-28T12:10:16.786Z,84.03
2023-04-28T12:12:50.797Z,84.39
2023-04-28T12:15:20.110Z,83.56
2023-04-28T12:17:47.489Z,83.96
2023-04-28T12:20:35.506Z,84.25
2023-04-28T12:23:02.901Z,84.80
2023-04-28T12:25:29.815Z,84.77
2023-04-28T12:28:04.769Z,84.75
2023-04-28T12:30:38.905Z,85.15
2023-04-28T12:33:06.048Z,85.24
2023-04-28T12:35:33.287Z,85.13
2023-04-28T12:38:00.357Z,84.91
2023-04-28T12:40:27.210Z,84.95
2023-04-28T12:42:54.175Z,84.85
2023-04-28T12:45:20.936Z,84.74
2023-04-28T12:47:48.385Z,84.97
2023-04-28T12:50:15.307Z,85.58
2023-04-28T12:52:41.909Z,83.71
2023-04-28T12:55:08.933Z,84.73
2023-04-28T12:57:38.983Z,85.43
2023-04-28T13:00:07.642Z,84.45
2023-04-28T13:02:35.080Z,84.76
2023-04-28T13:05:02.114Z,83.99
2023-04-28T13:07:30.296Z,84.96
2023-04-28T13:09:57.384Z,83.19
2023-04-28T13:12:24.244Z,82.81
2023-04-28T13:14:51.146Z,84.60
2023-04-28T13:17:18.016Z,85.55
2023-04-28T13:19:45.068Z,85.16
2023-04-28T13:22:12.437Z,83.54
2023-04-28T13:24:39.038Z,83.82
2023-04-28T13:27:09.708Z,83.56
2023-04-28T13:29:36.992Z,83.90
2023-04-28T13:32:05.548Z,83.72
2023-04-28T13:34:32.847Z,83.79
2023-04-28T13:36:59.605Z,83.65
2023-04-28T13:39:26.188Z,83.88
2023-04-28T13:41:52.934Z,83.23
2023-04-28T13:44:19.544Z,82.43
2023-04-28T13:46:46.308Z,80.09
2023-04-28T13:49:13.251Z,80.63
2023-04-28T13:51:40.012Z,82.71
2023-04-28T13:54:13.274Z,81.12
2023-04-28T13:56:40.062Z,80.42
2023-04-28T13:59:07.358Z,81.49
2023-04-28T14:01:34.035Z,80.64
2023-04-28T14:04:01.141Z,80.04
2023-04-28T14:06:28.035Z,80.59
2023-04-28T14:08:54.733Z,79.65
2023-04-28T14:11:21.550Z,79.31
2023-04-28T14:13:48.213Z,80.44
2023-04-28T14:16:14.880Z,79.78
2023-04-28T14:18:41.707Z,80.24
2023-04-28T14:21:08.664Z,79.83
2023-04-28T14:23:35.670Z,79.71
2023-04-28T14:26:02.686Z,80.21
2023-04-28T14:28:29.587Z,80.49
2023-04-28T14:30:56.668Z,80.23
2023-04-28T14:33:23.519Z,80.16
2023-04-28T14:35:50.129Z,81.81
2023-04-28T14:38:16.795Z,81.86
2023-04-28T14:40:43.434Z,82.45
2023-04-28T14:43:11.357Z,82.36
2023-04-28T14:45:40.964Z,82.32
2023-04-28T14:48:08.049Z,82.96
2023-04-28T14:50:35.101Z,82.75
2023-04-28T14:53:05.677Z,83.35
2023-04-28T14:55:33.184Z,82.45
2023-04-28T14:57:59.785Z,82.37
2023-04-28T15:00:26.459Z,83.76
2023-04-28T15:02:53.365Z,84.19
2023-04-28T15:05:20.155Z,83.06
2023-04-28T15:07:46.897Z,82.69
2023-04-28T15:10:13.544Z,82.58
2023-04-28T15:12:40.185Z,82.15
2023-04-28T15:15:07.947Z,82.00
2023-04-28T15:17:34.680Z,82.55
2023-04-28T15:20:01.536Z,81.75
2023-04-28T15:22:28.118Z,82.50
2023-04-28T15:24:55.957Z,81.78
2023-04-28T15:27:23.226Z,82.84
2023-04-28T15:29:50.531Z,83.75
2023-04-28T15:32:17.558Z,83.39
2023-04-28T15:34:44.315Z,83.69
2023-04-28T15:37:29.823Z,83.45
2023-04-28T15:39:56.547Z,83.28
2023-04-28T15:42:23.187Z,83.81
2023-04-28T15:44:50.434Z,83.25
2023-04-28T15:47:17.674Z,83.69
2023-04-28T15:49:44.302Z,83.65
2023-04-28T15:52:11.429Z,83.74
2023-04-28T15:54:39.583Z,83.66
2023-04-28T15:57:06.533Z,83.88
2023-04-28T15:59:33.541Z,84.16
2023-04-28T16:02:00.259Z,84.03
2023-04-28T16:04:27.007Z,84.89
2023-04-28T16:06:55.435Z,85.21
2023-04-28T16:09:22.075Z,84.69
2023-04-28T16:11:48.707Z,84.25
2023-04-28T16:14:15.591Z,84.22
2023-04-28T16:16:42.384Z,84.48
2023-04-28T16:19:10.004Z,84.69
2023-04-28T16:21:36.758Z,84.92
2023-04-28T16:24:04.512Z,84.89
2023-04-28T16:26:31.256Z,85.21
2023-04-28T16:28:57.796Z,84.09
2023-04-28T16:31:24.443Z,84.28
2023-04-28T16:33:51.149Z,85.09
2023-04-28T16:36:17.896Z,84.47
2023-04-28T16:38:46.568Z,85.97
2023-04-28T16:41:13.355Z,87.47
2023-04-28T16:43:39.997Z,86.62
2023-04-28T16:46:07.566Z,86.52
2023-04-28T16:48:34.330Z,85.48
2023-04-28T16:51:01.140Z,85.93
2023-04-28T16:53:27.741Z,86.38
2023-04-28T16:55:54.339Z,85.89
2023-04-28T16:58:21.172Z,86.51
2023-04-28T17:00:48.088Z,85.54
2023-04-28T17:03:14.714Z,85.58
2023-04-28T17:05:41.547Z,85.28
2023-04-28T17:08:08.156Z,85.88
2023-04-28T17:10:38.003Z,85.05
2023-04-28T17:13:04.944Z,85.81
2023-04-28T17:15:31.641Z,85.51
2023-04-28T17:17:58.299Z,85.20
2023-04-28T17:20:25.011Z,85.04
2023-04-28T17:22:52.832Z,85.96
2023-04-28T17:25:22.407Z,86.61
2023-04-28T17:27:49.243Z,86.91
2023-04-28T17:30:16.177Z,87.28
2023-04-28T17:32:42.825Z,86.67
2023-04-28T17:35:09.494Z,85.86
2023-04-28T17:37:37.237Z,86.22
2023-04-28T17:40:04.723Z,87.06
2023-04-28T17:42:31.935Z,87.61
2023-04-28T17:44:58.855Z,87.87
2023-04-28T17:47:25.649Z,86.47
2023-04-28T17:49:52.436Z,85.78
2023-04-28T17:52:19.143Z,86.74
2023-04-28T17:54:45.849Z,86.53
2023-04-28T17:57:13.206Z,86.98
2023-04-28T17:59:40.717Z,87.24
2023-04-28T18:02:11.578Z,87.11
2023-04-28T18:04:38.691Z,86.99
2023-04-28T18:07:07.841Z,86.50
2023-04-28T18:09:34.472Z,86.37
2023-04-28T18:12:03.177Z,87.14
2023-04-28T18:14:30.318Z,88.36
2023-04-28T18:16:57.732Z,87.91
2023-04-28T18:19:27.557Z,87.00
2023-04-28T18:21:58.171Z,89.44
2023-04-28T18:24:24.936Z,89.58
2023-04-28T18:26:51.608Z,89.90
2023-04-28T18:29:21.268Z,94.28
2023-04-28T18:31:48.065Z,94.49
2023-04-28T18:34:14.739Z,91.82
2023-04-28T18:36:41.347Z,93.25
2023-04-28T18:39:11.302Z,94.49
2023-04-28T18:41:39.486Z,93.54
2023-04-28T18:44:06.292Z,93.72
2023-04-28T18:46:33.736Z,92.29
2023-04-28T18:49:00.370Z,92.74
2023-04-28T18:51:27.122Z,91.70
2023-04-28T18:53:53.718Z,91.38
2023-04-28T18:56:21.900Z,92.57
2023-04-28T18:58:48.533Z,90.88
2023-04-28T19:01:18.378Z,90.29
2023-04-28T19:03:45.280Z,90.08
2023-04-28T19:06:12.131Z,93.39
2023-04-28T19:08:39.398Z,92.83
2023-04-28T19:11:09.640Z,93.05
2023-04-28T19:13:37.612Z,91.65
2023-04-28T19:16:05.048Z,91.02
2023-04-28T19:18:33.195Z,91.87
2023-04-28T19:21:04.743Z,91.83
2023-04-28T19:23:32.723Z,91.69
2023-04-28T19:25:59.972Z,91.86
2023-04-28T19:28:26.832Z,92.45
2023-04-28T19:30:54.623Z,93.78
2023-04-28T19:33:28.003Z,92.64
2023-04-28T19:35:55.206Z,95.95
2023-04-28T19:38:23.338Z,96.19
2023-04-28T19:40:51.019Z,96.67
2023-04-28T19:43:18.141Z,96.82
2023-04-28T19:45:46.643Z,96.26
2023-04-28T19:48:14.601Z,96.18
2023-04-28T19:50:42.129Z,96.24
2023-04-28T19:53:09.437Z,98.13
2023-04-28T19:55:36.894Z,96.25
2023-04-28T19:58:04.053Z,95.76
2023-04-28T20:00:32.475Z,96.31
2023-04-28T20:03:00.004Z,97.73
2023-04-28T20:05:27.033Z,98.62
2023-04-28T20:07:56.103Z,98.60
2023-04-28T20:10:23.428Z,97.23
2023-04-28T20:12:50.038Z,98.27
2023-04-28T20:15:18.489Z,99.69
2023-04-28T20:17:46.097Z,98.14
2023-04-28T20:20:12.979Z,98.67
2023-04-28T20:22:41.176Z,100.00
2023-04-28T20:25:10.493Z,100.00
2023-04-28T20:27:37.524Z,100.00
2023-04-28T20:30:04.953Z,100.00
2023-04-28T20:32:31.644Z,100.00
2023-04-28T20:34:58.304Z,100.00
2023-04-28T20:37:26.500Z,100.00
2023-04-28T20:39:53.552Z,100.00
2023-04-28T20:42:20.300Z,100.00
2023-04-28T20:44:46.956Z,100.00
2023-04-28T20:47:14.025Z,100.00
2023-04-28T20:49:40.687Z,100.00
2023-04-28T20:52:07.488Z,100.00
2023-04-28T20:54:36.134Z,100.00
2023-04-28T20:57:04.726Z,100.00
2023-04-28T20:59:32.752Z,100.00
2023-04-28T21:02:00.012Z,100.00
2023-04-28T21:04:28.232Z,100.00
2023-04-28T21:06:55.641Z,100.00
2023-04-28T21:09:25.244Z,100.00
2023-04-28T21:11:52.489Z,100.00
2023-04-28T21:14:19.252Z,100.00
2023-04-28T21:16:46.039Z,100.00
2023-04-28T21:19:12.933Z,100.00
2023-04-28T21:21:39.555Z,100.00
2023-04-28T21:24:08.031Z,100.00
2023-04-28T21:26:35.898Z,100.00
2023-04-28T21:29:03.204Z,100.00
2023-04-28T21:31:30.716Z,100.00
2023-04-28T21:33:57.631Z,100.00
2023-04-28T21:36:24.387Z,100.00
2023-04-28T21:38:51.014Z,100.00
2023-04-28T21:41:17.689Z,100.00
2023-04-28T21:43:44.406Z,100.00
2023-04-28T21:46:11.441Z,100.00
2023-04-28T21:48:38.601Z,100.00
2023-04-28T21:51:05.413Z,100.00
2023-04-28T21:53:32.109Z,100.00
2023-04-28T21:55:58.767Z,100.00
2023-04-28T21:58:25.466Z,100.00
2023-04-28T22:00:52.418Z,100.00
2023-04-28T22:03:19.886Z,100.00
2023-04-28T22:05:47.016Z,100.00
2023-04-28T22:08:14.278Z,100.00
2023-04-28T22:10:40.988Z,100.00
2023-04-28T22:13:07.706Z,100.00
2023-04-28T22:15:34.455Z,100.00
2023-04-28T22:18:01.220Z,100.00
2023-04-28T22:20:28.047Z,100.00
2023-04-28T22:22:54.761Z,100.00
2023-04-28T22:25:21.609Z,100.00
2023-04-28T22:27:48.355Z,100.00
2023-04-28T22:30:15.666Z,100.00
2023-04-28T22:32:47.272Z,100.00
2023-04-28T22:35:14.753Z,100.00
2023-04-28T22:37:41.403Z,100.00
2023-04-28T22:40:08.947Z,100.00
2023-04-28T22:42:40.039Z,100.00
2023-04-28T22:45:07.198Z,100.00
2023-04-28T22:47:34.624Z,100.00
2023-04-28T22:50:04.061Z,100.00
2023-04-28T22:52:32.331Z,100.00
2023-04-28T22:54:59.062Z,100.00
2023-04-28T22:57:25.986Z,100.00
2023-04-28T22:59:52.953Z,100.00
2023-04-28T23:02:20.465Z,100.00
2023-04-28T23:04:47.123Z,100.00
2023-04-28T23:07:13.764Z,100.00
2023-04-28T23:09:40.406Z,100.00
2023-04-28T23:12:07.365Z,100.00
2023-04-28T23:14:34.368Z,100.00
2023-04-28T23:17:00.970Z,100.00
2023-04-28T23:19:27.646Z,100.00
2023-04-28T23:21:54.514Z,100.00
2023-04-28T23:24:21.098Z,100.00
2023-04-28T23:26:47.814Z,100.00
2023-04-28T23:29:14.576Z,100.00
2023-04-28T23:31:41.341Z,100.00
2023-04-28T23:34:09.038Z,100.00
2023-04-28T23:36:36.467Z,100.00
2023-04-28T23:39:03.158Z,100.00
2023-04-28T23:41:29.817Z,100.00
2023-04-28T23:43:56.758Z,100.00
2023-04-28T23:46:23.552Z,100.00
2023-04-28T23:48:50.164Z,100.00
2023-04-28T23:51:16.813Z,100.00
2023-04-28T23:53:43.636Z,100.00
2023-04-28T23:56:10.253Z,100.00
2023-04-28T23:58:37.761Z,100.00
